Weather History for Rolla, ND

Change the Weather History Date:

Thursday, March 20, 2014

  Actual Average (KRUG) Record (KRUG)
Temperature  
Mean Temperature 30 °F -  
Max Temperature 37 °F 38 °F 63 °F (1991)
Min Temperature 23 °F 19 °F -18 °F (2013)
Degree Days  
Heating Degree Days 35    
Moisture  
Dew Point 28 °F    
Average Humidity 92    
Maximum Humidity 100    
Minimum Humidity 70    
Precipitation  
Precipitation 0.24 in - - ()
Sea Level Pressure  
Sea Level Pressure 29.81 in    
Wind  
Wind Speed 7 mph (SE)    
Max Wind Speed 18 mph    
Max Gust Speed 22 mph    
Visibility 10 miles    
Events Snow    
Averages and records for this station are not official NWS values.
T = Trace of Precipitation, MM = Missing Value Source: NWS Daily Summary

Daily Weather History Graph

Daily Weather History Graph

Search for Another Location

Airport:

Trip Planner

Search our weather history database for the weather conditions in past years. The results will help you decide how hot, cold, wet, or windy it might be!

Date:

Astronomy

Mar. 20, 2014 Rise Set
Actual Time 7:41 AM CDT 7:51 PM CDT
Civil Twilight 7:09 AM CDT 8:23 PM CDT
Nautical Twilight 6:32 AM CDT 9:00 PM CDT
Astronomical Twilight 5:54 AM CDT 9:38 PM CDT
Moon No Moon Rise 9:28 AM CDT (3/20)
Length of Visible Light 13h 13m
Length of Day
12h 10m
Waning Gibbous, 84% of the Moon is Illuminated
Mar 20
Waning Gibbous
Mar 23
Last Quarter
Mar 30
New
Apr 7
First Quarter
Apr 15
Full

Hourly Weather History & Observations

Time (CDT) Temp. Windchill Dew Point Humidity Pressure Visibility Wind Dir Wind Speed Gust Speed Precip Events Conditions
12:15 AM 28.4 °F 21.2 °F 26.6 °F 93% 29.90 in 10.0 mi WNW 6.9 mph - N/A   Clear
12:35 AM 28.4 °F 23.3 °F 26.6 °F 93% 29.90 in 10.0 mi WNW 4.6 mph - N/A   Clear
12:55 AM 26.6 °F - 26.6 °F 100% 29.89 in 10.0 mi Calm Calm - N/A   Clear
1:15 AM 28.4 °F - 26.6 °F 93% 29.90 in 10.0 mi Calm Calm - N/A   Clear
1:35 AM 26.6 °F - 26.6 °F 100% 29.89 in 10.0 mi Calm Calm - N/A   Clear
1:55 AM 26.6 °F 22.6 °F 26.6 °F 100% 29.89 in 10.0 mi SSW 3.5 mph - N/A   Clear
2:15 AM 26.6 °F 22.6 °F 26.6 °F 100% 29.88 in 10.0 mi SSW 3.5 mph - N/A   Clear
2:35 AM 24.8 °F 19.1 °F 24.8 °F 100% 29.89 in 10.0 mi WSW 4.6 mph - N/A   Clear
2:55 AM 24.8 °F - 24.8 °F 100% 29.88 in 10.0 mi Calm Calm - N/A   Clear
3:15 AM 24.8 °F - 24.8 °F 100% 29.89 in 10.0 mi Calm Calm - N/A   Clear
3:35 AM 24.8 °F 19.1 °F 24.8 °F 100% 29.88 in 10.0 mi SW 4.6 mph - N/A   Clear
3:55 AM 24.8 °F - 24.8 °F 100% 29.88 in 10.0 mi Calm Calm - N/A   Clear
4:15 AM 24.8 °F 17.9 °F 23.0 °F 93% 29.88 in 10.0 mi SW 5.8 mph - N/A   Clear
4:35 AM 24.8 °F 20.5 °F 23.0 °F 93% 29.88 in 10.0 mi WSW 3.5 mph - N/A   Clear
4:55 AM 24.8 °F 20.5 °F 23.0 °F 93% 29.88 in 10.0 mi SSW 3.5 mph - N/A   Clear
5:15 AM 24.8 °F 17.9 °F 23.0 °F 93% 29.88 in 10.0 mi SW 5.8 mph - N/A   Clear
5:35 AM 24.8 °F 17.9 °F 23.0 °F 93% 29.87 in 10.0 mi SW 5.8 mph - N/A   Clear
5:55 AM 24.8 °F 17.9 °F 24.8 °F 100% 29.87 in 10.0 mi SW 5.8 mph - N/A   Clear
6:15 AM 24.8 °F 16.1 °F 23.0 °F 93% 29.87 in 10.0 mi SW 8.1 mph - N/A   Clear
6:35 AM 23.0 °F 17.0 °F 23.0 °F 100% 29.87 in 10.0 mi SW 4.6 mph - N/A   Clear
6:55 AM 23.0 °F - 23.0 °F 100% 29.87 in 10.0 mi Calm Calm - N/A   Clear
7:15 AM 23.0 °F - 23.0 °F 100% 29.87 in 10.0 mi Calm Calm - N/A   Clear
7:35 AM 24.8 °F - 24.8 °F 100% 29.86 in 10.0 mi Calm Calm - N/A   Clear
7:55 AM 23.0 °F 17.0 °F 23.0 °F 100% 29.86 in 10.0 mi SW 4.6 mph - N/A   Clear
8:15 AM 23.0 °F 18.4 °F 23.0 °F 100% 29.86 in 10.0 mi SSW 3.5 mph - N/A   Clear
8:35 AM 24.8 °F 19.1 °F 24.8 °F 100% 29.84 in 10.0 mi South 4.6 mph - N/A   Partly Cloudy
8:55 AM 26.6 °F 21.2 °F 24.8 °F 93% 29.84 in 10.0 mi South 4.6 mph - N/A   Mostly Cloudy
9:15 AM 26.6 °F - 26.6 °F 100% 29.84 in 10.0 mi Calm Calm - N/A   Partly Cloudy
9:35 AM 28.4 °F 23.3 °F 26.6 °F 93% 29.83 in 10.0 mi South 4.6 mph - N/A   Mostly Cloudy
9:55 AM 28.4 °F 23.3 °F 26.6 °F 93% 29.83 in 10.0 mi South 4.6 mph - N/A   Mostly Cloudy
10:15 AM 30.2 °F 23.4 °F 28.4 °F 93% 29.83 in 10.0 mi South 6.9 mph - N/A   Mostly Cloudy
10:35 AM 32.0 °F 24.8 °F 28.4 °F 87% 29.82 in 10.0 mi SSE 8.1 mph - N/A   Mostly Cloudy
10:55 AM 32.0 °F 26.4 °F 28.4 °F 87% 29.82 in 10.0 mi South 5.8 mph - N/A   Scattered Clouds
11:15 AM 32.0 °F 24.2 °F 26.6 °F 80% 29.82 in 10.0 mi SSE 9.2 mph - N/A   Mostly Cloudy
11:35 AM 32.0 °F 23.6 °F 28.4 °F 87% 29.81 in 10.0 mi SSE 10.4 mph - N/A   Overcast
11:55 AM 32.0 °F 24.8 °F 28.4 °F 87% 29.81 in 10.0 mi SSE 8.1 mph - N/A   Overcast
12:15 PM 32.0 °F 23.6 °F 28.4 °F 87% 29.81 in 10.0 mi SE 10.4 mph - N/A   Mostly Cloudy
12:35 PM 32.0 °F 23.6 °F 30.2 °F 93% 29.80 in 10.0 mi SE 10.4 mph - N/A   Scattered Clouds
12:55 PM 32.0 °F 23.6 °F 28.4 °F 87% 29.79 in 10.0 mi ESE 10.4 mph - N/A   Scattered Clouds
1:15 PM 35.6 °F 27.5 °F 32.0 °F 87% 29.78 in 10.0 mi East 11.5 mph - N/A   Mostly Cloudy
1:35 PM 35.6 °F 27.1 °F 32.0 °F 87% 29.78 in 10.0 mi ESE 12.7 mph - N/A   Mostly Cloudy
1:55 PM 35.6 °F 26.6 °F 28.4 °F 75% 29.77 in 10.0 mi ESE 13.8 mph - N/A   Mostly Cloudy
2:15 PM 35.6 °F 26.6 °F 26.6 °F 70% 29.76 in 10.0 mi ESE 13.8 mph - N/A   Clear
2:35 PM 35.6 °F 26.6 °F 26.6 °F 70% 29.76 in 10.0 mi ESE 13.8 mph 19.6 mph N/A   Partly Cloudy
2:55 PM 37.4 °F 27.8 °F 28.4 °F 70% 29.75 in 10.0 mi ESE 17.3 mph - N/A   Scattered Clouds
3:15 PM 37.4 °F 27.5 °F 28.4 °F 70% 29.74 in 10.0 mi ESE 18.4 mph - N/A   Mostly Cloudy
3:35 PM 37.4 °F 28.2 °F 28.4 °F 70% 29.74 in 10.0 mi ESE 16.1 mph 21.9 mph N/A   Mostly Cloudy
3:55 PM 37.4 °F 28.2 °F 30.2 °F 75% 29.74 in 10.0 mi ESE 16.1 mph - N/A   Scattered Clouds
4:15 PM 35.6 °F 25.5 °F 30.2 °F 81% 29.74 in 10.0 mi ESE 17.3 mph - N/A   Mostly Cloudy
4:35 PM 35.6 °F 26.6 °F 30.2 °F 81% 29.74 in 10.0 mi SE 13.8 mph 21.9 mph N/A   Mostly Cloudy
4:55 PM 37.4 °F 28.2 °F 32.0 °F 81% 29.74 in 10.0 mi ESE 16.1 mph 19.6 mph N/A   Overcast
5:15 PM 35.6 °F 26.6 °F 32.0 °F 87% 29.74 in 10.0 mi East 13.8 mph - N/A   Mostly Cloudy
5:35 PM 35.6 °F 26.2 °F 30.2 °F 81% 29.73 in 10.0 mi ESE 15.0 mph - N/A   Scattered Clouds
5:55 PM 35.6 °F 27.1 °F 30.2 °F 81% 29.73 in 10.0 mi East 12.7 mph - N/A   Partly Cloudy
6:15 PM 35.6 °F 27.1 °F 30.2 °F 81% 29.73 in 10.0 mi East 12.7 mph 19.6 mph N/A   Clear
6:35 PM 35.6 °F 27.1 °F 30.2 °F 81% 29.73 in 10.0 mi East 12.7 mph 17.3 mph N/A   Scattered Clouds
6:55 PM 35.6 °F 28.0 °F 30.2 °F 81% 29.73 in 10.0 mi East 10.4 mph 18.4 mph N/A   Mostly Cloudy
7:15 PM 33.8 °F 25.8 °F 32.0 °F 93% 29.73 in 10.0 mi East 10.4 mph - N/A   Overcast
7:35 PM 32.0 °F 23.6 °F 32.0 °F 100% 29.73 in 10.0 mi East 10.4 mph 17.3 mph N/A   Mostly Cloudy
7:55 PM 32.0 °F 24.2 °F 32.0 °F 100% 29.74 in 10.0 mi East 9.2 mph - N/A   Overcast
8:15 PM 32.0 °F 23.6 °F 32.0 °F 100% 29.74 in 10.0 mi East 10.4 mph - N/A   Overcast
8:35 PM 32.0 °F 22.5 °F 32.0 °F 100% 29.74 in 10.0 mi East 12.7 mph - N/A   Overcast
8:55 PM 32.0 °F 23.0 °F 32.0 °F 100% 29.74 in 10.0 mi ENE 11.5 mph - N/A   Overcast
9:15 PM 32.0 °F 22.5 °F 32.0 °F 100% 29.75 in 10.0 mi ENE 12.7 mph - N/A   Overcast
9:35 PM 32.0 °F 23.6 °F 32.0 °F 100% 29.75 in 10.0 mi ENE 10.4 mph - N/A   Overcast
9:55 PM 32.0 °F 23.0 °F 32.0 °F 100% 29.75 in 10.0 mi ENE 11.5 mph - N/A   Overcast
10:15 PM 32.0 °F 23.0 °F 32.0 °F 100% 29.75 in 9.0 mi NE 11.5 mph - N/A Snow Light Snow
10:35 PM 30.2 °F 20.2 °F 30.2 °F 100% 29.76 in 5.0 mi NE 12.7 mph - 0.02 in Snow Light Snow
10:55 PM 30.2 °F 20.2 °F 30.2 °F 100% 29.76 in 8.0 mi NE 12.7 mph - 0.07 in Snow Light Snow
11:15 PM 30.2 °F 19.8 °F 30.2 °F 100% 29.77 in 3.0 mi NE 13.8 mph - 0.04 in Snow Light Snow
11:35 PM 30.2 °F 18.9 °F 30.2 °F 100% 29.77 in 3.0 mi NE 16.1 mph 21.9 mph 0.13 in Snow Light Snow
11:55 PM 28.4 °F 16.2 °F 28.4 °F 100% 29.78 in 5.0 mi NE 17.3 mph 20.7 mph 0.17 in Snow Light Snow